Time;durP1;ratioP1;P1;durP2;ratioP2;P2;SDS_P1;SDS_P2;PMS_P1;PMS_P2;Temp;Humidity;BMP_temperature;BMP_pressure;BME280_temperature;BME280_humidity;BME280_pressure;Samples;Min_cycle;Max_cycle;Signal;HPM_P1;HPM_P2
2023/03/21 00:00:30;;;;;;;9.43;4.73;;;;;;;;;;5009750;28;20239;-53
2023/03/21 00:02:56;;;;;;;7.23;4.50;;;;;;;;;;5004049;28;20175;-53
2023/03/21 00:05:22;;;;;;;6.97;4.23;;;;;;;;;;5006574;28;20181;-53
2023/03/21 00:07:49;;;;;;;9.13;4.13;;;;;;;;;;5006466;28;20210;-54
2023/03/21 00:10:15;;;;;;;6.07;3.80;;;;;;;;;;5005446;28;20642;-54
2023/03/21 00:12:41;;;;;;;7.83;4.33;;;;;;;;;;5009576;28;20698;-54
2023/03/21 00:15:08;;;;;;;13.63;4.83;;;;;;;;;;5011198;28;20681;-54
2023/03/21 00:17:38;;;;;;;8.20;4.20;;;;;;;;;;5012084;28;20190;-54
2023/03/21 00:20:05;;;;;;;6.07;4.03;;;;;;;;;;5007822;28;20230;-54
2023/03/21 00:22:31;;;;;;;8.43;4.23;;;;;;;;;;5015030;28;20243;-54
2023/03/21 00:24:57;;;;;;;8.50;4.40;;;;;;;;;;5010653;28;20189;-55
2023/03/21 00:27:23;;;;;;;8.63;4.37;;;;;;;;;;5012190;28;20202;-54
2023/03/21 00:29:49;;;;;;;8.47;5.00;;;;;;;;;;5015166;28;20855;-54
2023/03/21 00:32:16;;;;;;;6.70;3.57;;;;;;;;;;5010045;28;20185;-54
2023/03/21 00:34:42;;;;;;;7.27;3.70;;;;;;;;;;5008799;28;20186;-54
2023/03/21 00:37:10;;;;;;;11.40;4.57;;;;;;;;;;5011298;28;20336;-54
2023/03/21 00:39:37;;;;;;;7.23;4.40;;;;;;;;;;5010436;28;20525;-54
2023/03/21 00:42:03;;;;;;;8.37;4.57;;;;;;;;;;5011728;28;20179;-53
2023/03/21 00:44:35;;;;;;;8.47;4.63;;;;;;;;;;5009791;28;20201;-53
2023/03/21 00:47:02;;;;;;;8.37;4.37;;;;;;;;;;5009845;28;20232;-53
2023/03/21 00:49:32;;;;;;;6.23;4.50;;;;;;;;;;5009554;28;20630;-53
2023/03/21 00:51:59;;;;;;;6.87;4.70;;;;;;;;;;5009201;28;20638;-52
2023/03/21 00:54:25;;;;;;;7.30;4.57;;;;;;;;;;5007153;28;20187;-52
2023/03/21 00:56:52;;;;;;;6.20;4.40;;;;;;;;;;5010934;28;20178;-52
2023/03/21 00:59:18;;;;;;;6.20;4.03;;;;;;;;;;5011263;28;20681;-52
2023/03/21 01:01:45;;;;;;;9.93;4.93;;;;;;;;;;5010710;28;20550;-52
2023/03/21 01:04:13;;;;;;;7.87;4.63;;;;;;;;;;5008920;28;20190;-52
2023/03/21 01:06:39;;;;;;;7.93;4.77;;;;;;;;;;5010039;28;20213;-52
2023/03/21 01:09:06;;;;;;;7.80;4.37;;;;;;;;;;5009507;28;20174;-52
2023/03/21 01:11:33;;;;;;;12.17;4.80;;;;;;;;;;5009834;28;20226;-52
2023/03/21 01:13:59;;;;;;;8.60;4.83;;;;;;;;;;5007150;28;20182;-52
2023/03/21 01:16:25;;;;;;;9.27;4.23;;;;;;;;;;5009272;28;20182;-52
2023/03/21 01:18:52;;;;;;;12.87;5.67;;;;;;;;;;5007932;28;20194;-52
2023/03/21 01:21:18;;;;;;;8.47;4.70;;;;;;;;;;5009794;28;20229;-52
2023/03/21 01:23:44;;;;;;;7.87;4.80;;;;;;;;;;5008765;28;20191;-52
2023/03/21 01:26:10;;;;;;;8.93;5.00;;;;;;;;;;5009622;28;20702;-52
2023/03/21 01:28:37;;;;;;;11.30;5.23;;;;;;;;;;5010376;28;20202;-52
2023/03/21 01:31:04;;;;;;;9.67;5.50;;;;;;;;;;5010207;28;20548;-52
2023/03/21 01:33:31;;;;;;;9.20;5.23;;;;;;;;;;5009364;28;20182;-52
2023/03/21 01:35:57;;;;;;;8.53;5.37;;;;;;;;;;5010381;28;20187;-52
2023/03/21 01:38:24;;;;;;;9.17;5.33;;;;;;;;;;5008190;28;20266;-52
2023/03/21 01:40:50;;;;;;;6.70;4.33;;;;;;;;;;5010914;28;20613;-52
2023/03/21 01:43:21;;;;;;;8.03;4.97;;;;;;;;;;5009249;28;20184;-52
2023/03/21 01:46:06;;;;;;;9.03;5.13;;;;;;;;;;5010186;28;21801;-52
2023/03/21 01:48:32;;;;;;;9.60;5.67;;;;;;;;;;5015353;28;20634;-51
2023/03/21 01:50:59;;;;;;;10.70;4.97;;;;;;;;;;5015390;28;20179;-52
2023/03/21 01:53:28;;;;;;;6.17;4.87;;;;;;;;;;5007164;28;20201;-53
2023/03/21 01:55:56;;;;;;;10.73;5.80;;;;;;;;;;5012931;28;20188;-52
2023/03/21 01:58:22;;;;;;;9.00;5.33;;;;;;;;;;5009084;28;20185;-51
2023/03/21 02:00:49;;;;;;;14.63;5.53;;;;;;;;;;5007425;28;20266;-52
2023/03/21 02:03:16;;;;;;;10.30;5.93;;;;;;;;;;5005876;28;20198;-52
2023/03/21 02:05:54;;;;;;;13.47;6.50;;;;;;;;;;5010248;28;20189;-52
2023/03/21 02:08:22;;;;;;;8.80;5.60;;;;;;;;;;5008857;28;20185;-52
2023/03/21 02:10:49;;;;;;;11.30;5.80;;;;;;;;;;5006464;28;20226;-52
2023/03/21 02:13:15;;;;;;;10.10;5.73;;;;;;;;;;5006196;28;21115;-52
2023/03/21 02:15:44;;;;;;;8.37;5.97;;;;;;;;;;5013033;28;20300;-52
2023/03/21 02:18:15;;;;;;;10.73;6.37;;;;;;;;;;5007751;28;20189;-53
2023/03/21 02:20:41;;;;;;;9.47;6.00;;;;;;;;;;5009174;28;20619;-52
2023/03/21 02:23:19;;;;;;;7.37;5.70;;;;;;;;;;5010584;28;20669;-52
2023/03/21 02:26:00;;;;;;;11.27;5.40;;;;;;;;;;5012723;28;20228;-52
2023/03/21 02:28:32;;;;;;;11.90;6.10;;;;;;;;;;5018384;28;20170;-52
2023/03/21 02:31:09;;;;;;;11.40;5.97;;;;;;;;;;5007626;28;20569;-52
2023/03/21 02:33:52;;;;;;;12.60;6.40;;;;;;;;;;5004600;28;20183;-52
2023/03/21 02:36:27;;;;;;;6.80;5.20;;;;;;;;;;5011334;28;20190;-52
2023/03/21 02:39:16;;;;;;;11.07;6.10;;;;;;;;;;5009878;28;20658;-52
2023/03/21 02:41:49;;;;;;;8.67;5.70;;;;;;;;;;5009405;28;20214;-52
2023/03/21 02:44:30;;;;;;;10.47;6.47;;;;;;;;;;5016780;28;20190;-52
2023/03/21 02:46:59;;;;;;;11.90;6.20;;;;;;;;;;5006850;28;20252;-52
2023/03/21 02:49:28;;;;;;;9.53;6.07;;;;;;;;;;5007480;28;20171;-52
2023/03/21 02:51:56;;;;;;;8.30;5.27;;;;;;;;;;5007731;28;20189;-52
2023/03/21 02:54:23;;;;;;;8.73;5.97;;;;;;;;;;5005412;28;20179;-52
2023/03/21 02:56:50;;;;;;;12.33;5.53;;;;;;;;;;5005441;28;20202;-52
2023/03/21 02:59:17;;;;;;;8.20;5.73;;;;;;;;;;5005977;28;20186;-52
2023/03/21 03:01:43;;;;;;;7.83;6.40;;;;;;;;;;5006516;28;20190;-52
2023/03/21 03:04:19;;;;;;;7.00;5.70;;;;;;;;;;5007343;28;20174;-52
2023/03/21 03:07:02;;;;;;;9.60;5.77;;;;;;;;;;5007903;28;20203;-52
2023/03/21 03:09:38;;;;;;;11.53;5.47;;;;;;;;;;5007848;28;20186;-52
2023/03/21 03:12:12;;;;;;;11.37;6.33;;;;;;;;;;5006882;28;20202;-52
2023/03/21 03:15:05;;;;;;;9.37;5.67;;;;;;;;;;5002279;28;20257;-52
2023/03/21 03:17:34;;;;;;;10.17;6.23;;;;;;;;;;4999887;28;20221;-52
2023/03/21 03:20:09;;;;;;;12.63;6.87;;;;;;;;;;5005134;28;20237;-53
2023/03/21 03:22:40;;;;;;;9.93;6.20;;;;;;;;;;5008296;28;20243;-52
2023/03/21 03:25:10;;;;;;;7.50;5.73;;;;;;;;;;5004892;28;20569;-52
2023/03/21 03:27:38;;;;;;;9.00;6.23;;;;;;;;;;5008390;28;20670;-52
2023/03/21 03:30:06;;;;;;;10.30;6.10;;;;;;;;;;5003812;28;20175;-52
2023/03/21 03:32:37;;;;;;;7.60;6.00;;;;;;;;;;5005670;28;20209;-52
2023/03/21 03:35:04;;;;;;;13.33;6.63;;;;;;;;;;5008942;28;20206;-52
2023/03/21 03:37:32;;;;;;;11.87;6.17;;;;;;;;;;5009904;28;20216;-52
2023/03/21 03:40:10;;;;;;;6.97;5.97;;;;;;;;;;5008158;28;20198;-52
2023/03/21 03:42:41;;;;;;;8.73;6.07;;;;;;;;;;5010887;28;20268;-52
2023/03/21 03:45:07;;;;;;;11.83;5.97;;;;;;;;;;5009063;28;20186;-52
2023/03/21 03:47:47;;;;;;;8.80;6.33;;;;;;;;;;5010133;28;20678;-52
2023/03/21 03:50:20;;;;;;;11.70;6.37;;;;;;;;;;5015740;28;20174;-52
2023/03/21 03:52:48;;;;;;;11.70;6.67;;;;;;;;;;5013902;28;20178;-52
2023/03/21 03:55:16;;;;;;;10.80;5.90;;;;;;;;;;5011311;28;20240;-52
2023/03/21 03:57:43;;;;;;;9.60;6.07;;;;;;;;;;5013328;28;20221;-52
2023/03/21 04:00:11;;;;;;;13.10;6.43;;;;;;;;;;5013528;28;20178;-52
2023/03/21 04:02:37;;;;;;;8.20;5.83;;;;;;;;;;5013393;28;20270;-52
2023/03/21 04:05:04;;;;;;;10.10;6.10;;;;;;;;;;5006442;28;20660;-52
2023/03/21 04:07:30;;;;;;;9.27;6.20;;;;;;;;;;5005896;28;20234;-52
2023/03/21 04:09:56;;;;;;;7.57;5.73;;;;;;;;;;5009671;28;20211;-52
2023/03/21 04:12:23;;;;;;;13.47;6.33;;;;;;;;;;5012345;28;20260;-52
2023/03/21 04:14:50;;;;;;;13.37;5.90;;;;;;;;;;5010132;28;20183;-52
2023/03/21 04:17:17;;;;;;;11.27;6.13;;;;;;;;;;5023444;28;20182;-52
2023/03/21 04:19:44;;;;;;;11.70;6.47;;;;;;;;;;5010674;28;20230;-52
2023/03/21 04:22:11;;;;;;;11.10;6.27;;;;;;;;;;5013737;28;20586;-52
2023/03/21 04:24:38;;;;;;;8.33;5.90;;;;;;;;;;5009966;28;20218;-52
2023/03/21 04:27:04;;;;;;;9.10;5.23;;;;;;;;;;5011574;28;20269;-52
2023/03/21 04:29:31;;;;;;;12.20;6.60;;;;;;;;;;5011675;28;20661;-52
2023/03/21 04:31:57;;;;;;;10.77;6.73;;;;;;;;;;5011687;28;20754;-52
2023/03/21 04:34:26;;;;;;;8.57;5.40;;;;;;;;;;5009355;28;20325;-52
2023/03/21 04:36:54;;;;;;;6.07;5.33;;;;;;;;;;5010717;28;20654;-52
2023/03/21 04:39:20;;;;;;;8.73;5.33;;;;;;;;;;5009871;28;20703;-52
2023/03/21 04:41:47;;;;;;;9.57;5.80;;;;;;;;;;5010781;28;20189;-52
2023/03/21 04:44:14;;;;;;;11.93;6.00;;;;;;;;;;5010318;28;20656;-53
2023/03/21 04:46:41;;;;;;;10.47;5.87;;;;;;;;;;5009724;28;21039;-52
2023/03/21 04:49:07;;;;;;;9.87;5.90;;;;;;;;;;5010813;28;20186;-52
2023/03/21 04:51:33;;;;;;;11.27;6.40;;;;;;;;;;5016585;28;20188;-52
2023/03/21 04:53:59;;;;;;;11.23;6.43;;;;;;;;;;5008898;28;20179;-52
2023/03/21 04:56:32;;;;;;;12.90;6.83;;;;;;;;;;5008505;28;20178;-52
2023/03/21 04:59:09;;;;;;;12.27;5.97;;;;;;;;;;5015531;28;20584;-52
2023/03/21 05:01:35;;;;;;;7.40;5.37;;;;;;;;;;5010262;28;20190;-52
2023/03/21 05:04:03;;;;;;;11.07;5.93;;;;;;;;;;5007423;28;20597;-52
2023/03/21 05:06:29;;;;;;;11.07;6.43;;;;;;;;;;5010222;28;20264;-52
2023/03/21 05:08:58;;;;;;;8.33;5.90;;;;;;;;;;5010926;28;20600;-52
2023/03/21 05:11:25;;;;;;;9.73;6.37;;;;;;;;;;5010489;28;20210;-52
2023/03/21 05:13:51;;;;;;;7.17;5.80;;;;;;;;;;5009266;28;20181;-52
2023/03/21 05:16:17;;;;;;;9.10;6.30;;;;;;;;;;5010894;28;20201;-52
2023/03/21 05:18:43;;;;;;;8.97;5.40;;;;;;;;;;5010851;28;20178;-52
2023/03/21 05:21:09;;;;;;;14.43;6.93;;;;;;;;;;5007710;28;20579;-52
2023/03/21 05:23:40;;;;;;;8.80;6.17;;;;;;;;;;5009271;28;20317;-53
2023/03/21 05:26:08;;;;;;;7.80;5.87;;;;;;;;;;5008680;28;20222;-52
2023/03/21 05:28:35;;;;;;;10.27;5.97;;;;;;;;;;5004380;28;20686;-52
2023/03/21 05:31:04;;;;;;;8.27;5.90;;;;;;;;;;5004101;28;20191;-52
2023/03/21 05:33:31;;;;;;;9.90;5.27;;;;;;;;;;5009086;28;20182;-52
2023/03/21 05:35:57;;;;;;;9.17;6.17;;;;;;;;;;5017745;28;20229;-52
2023/03/21 05:38:23;;;;;;;9.63;5.20;;;;;;;;;;5022443;28;20309;-52
2023/03/21 05:40:50;;;;;;;12.00;6.50;;;;;;;;;;5010099;28;20211;-52
2023/03/21 05:43:16;;;;;;;10.17;6.13;;;;;;;;;;5006503;28;20500;-52
2023/03/21 05:45:42;;;;;;;7.43;5.47;;;;;;;;;;5008115;28;20857;-52
2023/03/21 05:48:08;;;;;;;9.90;6.10;;;;;;;;;;5007257;28;20206;-52
2023/03/21 05:50:35;;;;;;;14.13;6.10;;;;;;;;;;5009398;28;20193;-53
2023/03/21 05:53:01;;;;;;;8.77;5.70;;;;;;;;;;5009529;28;20175;-52
2023/03/21 05:55:27;;;;;;;12.37;6.27;;;;;;;;;;5018460;28;20177;-52
2023/03/21 05:57:53;;;;;;;8.07;6.20;;;;;;;;;;5012236;28;20904;-52
2023/03/21 06:00:20;;;;;;;10.10;6.17;;;;;;;;;;5008127;28;20643;-52
2023/03/21 06:02:46;;;;;;;9.20;5.60;;;;;;;;;;5008098;28;20722;-52
2023/03/21 06:05:13;;;;;;;10.30;6.30;;;;;;;;;;5007223;28;20194;-52
2023/03/21 06:07:39;;;;;;;11.53;6.13;;;;;;;;;;5006084;28;20615;-55
2023/03/21 06:10:05;;;;;;;12.70;5.47;;;;;;;;;;5007622;28;20225;-51
2023/03/21 06:12:31;;;;;;;13.50;6.33;;;;;;;;;;5007570;28;20218;-51
2023/03/21 06:14:58;;;;;;;10.30;6.07;;;;;;;;;;5008363;28;20588;-52
2023/03/21 06:17:24;;;;;;;12.70;5.37;;;;;;;;;;5009650;28;20273;-52
2023/03/21 06:19:50;;;;;;;10.57;5.30;;;;;;;;;;5011973;28;20388;-51
2023/03/21 06:22:16;;;;;;;9.43;5.43;;;;;;;;;;5008613;28;20202;-52
2023/03/21 06:24:42;;;;;;;10.63;5.60;;;;;;;;;;5007590;28;20205;-52
2023/03/21 06:27:09;;;;;;;9.33;5.77;;;;;;;;;;5008394;28;20202;-52
2023/03/21 06:29:41;;;;;;;11.77;6.67;;;;;;;;;;5007926;28;20232;-51
2023/03/21 06:32:07;;;;;;;9.47;5.47;;;;;;;;;;5007941;28;20228;-52
2023/03/21 06:34:33;;;;;;;13.27;5.80;;;;;;;;;;5007827;28;20228;-51
2023/03/21 06:36:59;;;;;;;12.27;5.40;;;;;;;;;;5009528;28;20186;-52
2023/03/21 06:39:25;;;;;;;11.73;6.80;;;;;;;;;;5008869;28;20189;-52
2023/03/21 06:41:51;;;;;;;9.47;5.67;;;;;;;;;;5008082;28;20520;-52
2023/03/21 06:44:18;;;;;;;8.33;5.07;;;;;;;;;;5006553;28;20264;-51
2023/03/21 06:46:44;;;;;;;7.93;5.67;;;;;;;;;;5010938;28;20678;-52
2023/03/21 06:49:10;;;;;;;9.97;6.03;;;;;;;;;;5006593;28;20622;-52
2023/03/21 06:51:36;;;;;;;10.33;5.80;;;;;;;;;;5008971;28;20181;-52
2023/03/21 06:54:02;;;;;;;12.67;6.40;;;;;;;;;;5006958;28;20527;-52
2023/03/21 06:56:28;;;;;;;13.27;7.97;;;;;;;;;;5003732;28;20197;-53
2023/03/21 06:58:54;;;;;;;7.37;5.37;;;;;;;;;;5012808;28;20189;-53
2023/03/21 07:01:20;;;;;;;11.07;6.03;;;;;;;;;;5006221;28;20677;-53
2023/03/21 07:03:47;;;;;;;11.80;5.20;;;;;;;;;;5006193;28;20179;-53
2023/03/21 07:06:13;;;;;;;9.60;5.57;;;;;;;;;;5005393;28;20209;-53
2023/03/21 07:08:40;;;;;;;13.07;5.53;;;;;;;;;;5006740;28;20654;-53
2023/03/21 07:11:06;;;;;;;8.20;5.27;;;;;;;;;;5003566;28;20195;-52
2023/03/21 07:13:32;;;;;;;6.60;4.97;;;;;;;;;;4990651;28;20274;-52
2023/03/21 07:15:59;;;;;;;7.07;5.33;;;;;;;;;;4990646;28;20183;-53
2023/03/21 07:18:25;;;;;;;7.20;5.43;;;;;;;;;;5007383;28;20800;-53
2023/03/21 07:20:51;;;;;;;9.63;5.73;;;;;;;;;;5009900;28;20233;-52
2023/03/21 07:23:18;;;;;;;7.53;4.93;;;;;;;;;;5022982;28;20516;-53
2023/03/21 07:25:45;;;;;;;9.43;5.80;;;;;;;;;;5027049;28;20185;-53
2023/03/21 07:28:11;;;;;;;9.40;5.70;;;;;;;;;;5028625;28;20198;-53
2023/03/21 07:30:37;;;;;;;9.00;5.47;;;;;;;;;;5028961;28;20657;-53
2023/03/21 07:33:03;;;;;;;6.33;5.20;;;;;;;;;;5028063;28;20170;-52
2023/03/21 07:35:29;;;;;;;7.53;4.73;;;;;;;;;;5028670;28;20178;-52
2023/03/21 07:37:55;;;;;;;7.67;5.27;;;;;;;;;;5018683;28;20182;-53
2023/03/21 07:40:21;;;;;;;7.53;4.40;;;;;;;;;;5008755;28;20173;-53
2023/03/21 07:42:49;;;;;;;8.30;5.00;;;;;;;;;;5009167;28;20273;-53
2023/03/21 07:45:19;;;;;;;8.47;5.27;;;;;;;;;;5008586;28;20214;-52
2023/03/21 07:47:46;;;;;;;8.13;5.20;;;;;;;;;;5007136;28;20562;-53
2023/03/21 07:50:12;;;;;;;9.67;5.37;;;;;;;;;;5008459;28;20634;-53
2023/03/21 07:52:38;;;;;;;9.90;5.27;;;;;;;;;;5013861;28;20668;-53
2023/03/21 07:55:05;;;;;;;7.17;4.87;;;;;;;;;;5028431;28;20613;-52
2023/03/21 07:57:31;;;;;;;9.67;4.67;;;;;;;;;;5029315;28;20170;-52
2023/03/21 07:59:57;;;;;;;8.17;5.13;;;;;;;;;;5028965;28;20713;-52
2023/03/21 08:02:23;;;;;;;7.97;4.30;;;;;;;;;;5029249;28;20175;-52
2023/03/21 08:04:50;;;;;;;6.40;4.93;;;;;;;;;;5028430;28;20619;-52
2023/03/21 08:07:16;;;;;;;7.27;4.00;;;;;;;;;;5022319;28;20629;-53
2023/03/21 08:09:45;;;;;;;6.43;4.33;;;;;;;;;;5021115;28;20656;-52
2023/03/21 08:12:11;;;;;;;5.40;4.17;;;;;;;;;;5029536;28;20185;-53
2023/03/21 08:14:38;;;;;;;6.20;4.60;;;;;;;;;;5029016;28;20540;-52
2023/03/21 08:17:04;;;;;;;9.47;5.03;;;;;;;;;;5027862;28;20626;-53
2023/03/21 08:19:31;;;;;;;10.50;5.00;;;;;;;;;;5027090;28;20632;-53
2023/03/21 08:21:58;;;;;;;8.80;4.43;;;;;;;;;;5028476;28;20656;-53
2023/03/21 08:24:25;;;;;;;9.63;4.70;;;;;;;;;;5015919;28;20226;-52
2023/03/21 08:26:51;;;;;;;7.53;4.83;;;;;;;;;;5009147;28;20206;-53
2023/03/21 08:29:17;;;;;;;7.47;5.10;;;;;;;;;;5009005;28;20163;-53
2023/03/21 08:31:43;;;;;;;8.87;4.97;;;;;;;;;;5008356;28;20566;-53
2023/03/21 08:34:09;;;;;;;10.70;5.17;;;;;;;;;;5007765;28;20915;-54
2023/03/21 08:36:36;;;;;;;7.40;5.40;;;;;;;;;;5012528;28;20265;-54
2023/03/21 08:39:05;;;;;;;7.50;5.13;;;;;;;;;;5026676;28;20174;-54
2023/03/21 08:41:35;;;;;;;9.63;5.47;;;;;;;;;;5032323;28;20250;-54
2023/03/21 08:44:02;;;;;;;15.07;5.07;;;;;;;;;;5031066;28;20197;-54
2023/03/21 08:46:29;;;;;;;7.03;5.43;;;;;;;;;;5025124;28;20308;-54
2023/03/21 08:48:55;;;;;;;7.67;5.27;;;;;;;;;;5010217;28;20241;-54
2023/03/21 08:51:22;;;;;;;10.17;6.40;;;;;;;;;;5010756;28;20158;-54
2023/03/21 08:53:51;;;;;;;7.63;5.30;;;;;;;;;;5021237;28;20174;-54
2023/03/21 08:56:17;;;;;;;7.67;5.23;;;;;;;;;;5030942;28;20169;-54
2023/03/21 08:58:44;;;;;;;12.37;6.53;;;;;;;;;;5030795;28;20209;-54
2023/03/21 09:01:14;;;;;;;8.77;5.50;;;;;;;;;;5030675;28;20510;-54
2023/03/21 09:03:43;;;;;;;9.20;5.30;;;;;;;;;;5030019;28;20178;-54
2023/03/21 09:06:13;;;;;;;9.00;5.70;;;;;;;;;;5029985;28;20193;-54
2023/03/21 09:08:40;;;;;;;7.77;6.00;;;;;;;;;;5030708;28;20196;-54
2023/03/21 09:11:06;;;;;;;8.93;5.37;;;;;;;;;;5031142;28;20209;-54
2023/03/21 09:13:32;;;;;;;7.87;5.40;;;;;;;;;;5031784;28;20216;-54
2023/03/21 09:16:00;;;;;;;8.40;5.80;;;;;;;;;;5032095;28;20513;-53
2023/03/21 09:18:45;;;;;;;6.70;5.47;;;;;;;;;;5023746;28;20183;-53
2023/03/21 09:21:13;;;;;;;6.70;5.47;;;;;;;;;;4992157;28;20168;-53
2023/03/21 09:23:40;;;;;;;9.27;5.40;;;;;;;;;;5002791;28;20235;-53
2023/03/21 09:26:08;;;;;;;6.60;5.37;;;;;;;;;;5031796;28;20158;-54
2023/03/21 09:28:36;;;;;;;9.13;5.23;;;;;;;;;;5031884;28;20177;-53
2023/03/21 09:31:02;;;;;;;6.67;4.87;;;;;;;;;;5031917;28;20166;-54
2023/03/21 09:33:29;;;;;;;7.70;5.67;;;;;;;;;;5030844;28;20536;-54
2023/03/21 09:35:59;;;;;;;10.53;5.53;;;;;;;;;;5031216;28;20170;-53
2023/03/21 09:38:29;;;;;;;11.50;5.60;;;;;;;;;;5030479;28;20170;-53
2023/03/21 09:41:11;;;;;;;7.00;5.67;;;;;;;;;;5031724;28;20197;-53
2023/03/21 09:43:37;;;;;;;8.37;5.30;;;;;;;;;;5031150;28;20158;-56
2023/03/21 09:46:09;;;;;;;8.83;5.90;;;;;;;;;;5026973;28;20178;-56
2023/03/21 09:48:42;;;;;;;9.27;6.27;;;;;;;;;;5010580;28;20165;-56
2023/03/21 09:51:11;;;;;;;8.07;6.33;;;;;;;;;;5011033;28;20204;-56
2023/03/21 09:53:39;;;;;;;12.77;5.93;;;;;;;;;;5012074;28;20163;-55
2023/03/21 09:56:09;;;;;;;11.07;6.73;;;;;;;;;;5031313;28;20257;-56
2023/03/21 09:58:38;;;;;;;6.53;5.57;;;;;;;;;;5031085;28;20212;-57
2023/03/21 10:01:27;;;;;;;10.83;5.63;;;;;;;;;;5031226;28;20193;-56
2023/03/21 10:03:53;;;;;;;10.90;6.37;;;;;;;;;;5028143;28;20170;-56
2023/03/21 10:06:26;;;;;;;12.00;6.53;;;;;;;;;;5026686;28;20636;-57
2023/03/21 10:08:52;;;;;;;6.23;5.63;;;;;;;;;;5027008;28;20158;-56
2023/03/21 10:11:22;;;;;;;6.17;5.00;;;;;;;;;;5009310;28;20202;-56
2023/03/21 10:13:50;;;;;;;9.43;5.60;;;;;;;;;;5009688;28;20185;-57
2023/03/21 10:16:27;;;;;;;10.97;5.97;;;;;;;;;;5009636;28;20174;-57
2023/03/21 10:18:54;;;;;;;8.90;5.90;;;;;;;;;;5008192;28;20162;-56
2023/03/21 10:21:24;;;;;;;10.10;6.57;;;;;;;;;;5010231;28;20159;-55
2023/03/21 10:23:51;;;;;;;8.50;5.60;;;;;;;;;;5011024;28;20162;-56
2023/03/21 10:26:18;;;;;;;7.07;5.63;;;;;;;;;;5010502;28;20555;-56
2023/03/21 10:28:45;;;;;;;9.77;5.67;;;;;;;;;;5010963;28;20587;-56
2023/03/21 10:31:15;;;;;;;9.47;5.57;;;;;;;;;;5010058;28;20178;-56
2023/03/21 10:33:43;;;;;;;8.90;5.70;;;;;;;;;;5009439;28;20155;-56
2023/03/21 10:36:10;;;;;;;7.73;5.03;;;;;;;;;;5021132;28;20175;-56
2023/03/21 10:38:38;;;;;;;8.63;5.73;;;;;;;;;;5030475;28;20674;-57
2023/03/21 10:41:04;;;;;;;8.07;5.63;;;;;;;;;;5014018;28;20198;-56
2023/03/21 10:43:33;;;;;;;6.40;4.83;;;;;;;;;;5010655;28;20162;-57
2023/03/21 10:46:04;;;;;;;10.90;5.40;;;;;;;;;;5007080;28;20164;-56
2023/03/21 10:48:34;;;;;;;8.10;5.37;;;;;;;;;;4989891;28;20635;-56
2023/03/21 10:51:01;;;;;;;9.40;5.90;;;;;;;;;;4990671;28;20180;-56
2023/03/21 10:53:32;;;;;;;7.40;4.73;;;;;;;;;;4990636;28;20235;-56
2023/03/21 10:55:59;;;;;;;8.13;5.10;;;;;;;;;;5014843;28;20178;-56
2023/03/21 10:58:32;;;;;;;7.30;6.03;;;;;;;;;;5029769;28;20841;-56
2023/03/21 11:01:02;;;;;;;9.67;5.50;;;;;;;;;;5029885;28;20219;-56
2023/03/21 11:03:31;;;;;;;9.13;6.13;;;;;;;;;;5028962;28;20174;-56
2023/03/21 11:06:07;;;;;;;10.23;5.67;;;;;;;;;;5029778;28;20189;-56
2023/03/21 11:08:43;;;;;;;6.40;5.67;;;;;;;;;;5030139;28;20611;-56
2023/03/21 11:11:11;;;;;;;5.93;5.27;;;;;;;;;;5027964;28;20210;-56
2023/03/21 11:13:41;;;;;;;8.10;5.50;;;;;;;;;;5029987;28;20158;-57
2023/03/21 11:16:11;;;;;;;6.93;5.23;;;;;;;;;;5027810;28;20220;-56
2023/03/21 11:18:44;;;;;;;8.83;5.77;;;;;;;;;;5028825;28;20827;-56
2023/03/21 11:21:12;;;;;;;10.60;6.47;;;;;;;;;;5029447;28;20240;-56
2023/03/21 11:23:40;;;;;;;10.20;5.40;;;;;;;;;;5029498;28;20158;-56
2023/03/21 11:26:09;;;;;;;9.67;6.63;;;;;;;;;;5010466;28;20647;-57
2023/03/21 11:28:40;;;;;;;7.57;5.70;;;;;;;;;;4990385;28;20170;-56
2023/03/21 11:31:10;;;;;;;14.60;5.83;;;;;;;;;;4990185;28;20167;-56
2023/03/21 11:33:37;;;;;;;10.80;6.07;;;;;;;;;;4989698;28;20226;-56
2023/03/21 11:36:08;;;;;;;7.03;5.67;;;;;;;;;;4990406;28;20262;-56
2023/03/21 11:38:38;;;;;;;7.90;5.33;;;;;;;;;;5014769;28;20177;-56
2023/03/21 11:41:04;;;;;;;8.67;5.53;;;;;;;;;;5027342;28;20192;-56
2023/03/21 11:43:32;;;;;;;10.50;5.47;;;;;;;;;;5029461;28;20159;-56
2023/03/21 11:46:04;;;;;;;7.80;5.50;;;;;;;;;;5023007;28;20627;-57
2023/03/21 11:48:37;;;;;;;8.73;5.40;;;;;;;;;;4989136;28;20179;-57
2023/03/21 11:51:06;;;;;;;8.63;6.10;;;;;;;;;;4990169;28;20172;-56
2023/03/21 11:53:51;;;;;;;5.77;4.90;;;;;;;;;;5007897;28;20502;-56
2023/03/21 11:56:25;;;;;;;7.83;5.37;;;;;;;;;;5009145;28;20182;-56
2023/03/21 11:58:55;;;;;;;5.73;5.10;;;;;;;;;;5024716;28;20181;-57
2023/03/21 12:01:29;;;;;;;7.57;4.70;;;;;;;;;;5009438;28;20163;-57
2023/03/21 12:03:56;;;;;;;5.17;4.13;;;;;;;;;;5008781;28;20257;-57
2023/03/21 12:06:29;;;;;;;6.73;4.60;;;;;;;;;;5008235;28;20278;-57
2023/03/21 12:09:11;;;;;;;8.67;4.87;;;;;;;;;;5006217;28;20181;-57
2023/03/21 12:11:50;;;;;;;8.67;4.67;;;;;;;;;;5008874;28;20198;-57
2023/03/21 12:14:26;;;;;;;8.00;4.97;;;;;;;;;;5012575;28;20253;-57
2023/03/21 12:17:11;;;;;;;8.60;4.93;;;;;;;;;;5010563;28;20209;-57
2023/03/21 12:19:40;;;;;;;6.47;4.57;;;;;;;;;;5011209;28;20300;-57
2023/03/21 12:22:26;;;;;;;6.07;4.27;;;;;;;;;;5010729;28;20186;-57
2023/03/21 12:25:04;;;;;;;5.87;5.17;;;;;;;;;;5011467;28;20884;-56
2023/03/21 12:27:46;;;;;;;6.23;4.73;;;;;;;;;;5010900;28;20550;-56
2023/03/21 12:30:27;;;;;;;7.13;3.97;;;;;;;;;;5012231;28;20193;-56
2023/03/21 12:33:16;;;;;;;7.63;4.03;;;;;;;;;;5009649;28;20182;-57
2023/03/21 12:35:52;;;;;;;6.43;4.53;;;;;;;;;;5009077;28;20277;-56
2023/03/21 12:38:37;;;;;;;8.73;5.03;;;;;;;;;;4999779;28;20182;-57
2023/03/21 12:41:10;;;;;;;6.17;4.90;;;;;;;;;;5010937;28;20210;-57
2023/03/21 12:43:46;;;;;;;6.53;4.77;;;;;;;;;;5011891;28;20269;-57
2023/03/21 12:46:24;;;;;;;6.90;4.50;;;;;;;;;;5010137;28;20174;-56
2023/03/21 12:48:53;;;;;;;7.27;4.63;;;;;;;;;;5010610;28;20521;-56
2023/03/21 12:51:22;;;;;;;6.47;4.43;;;;;;;;;;5012279;28;20274;-56
2023/03/21 12:53:55;;;;;;;5.50;4.23;;;;;;;;;;5011130;28;20706;-56
2023/03/21 12:56:28;;;;;;;7.20;4.70;;;;;;;;;;5014905;28;20738;-56
2023/03/21 12:58:57;;;;;;;7.27;4.50;;;;;;;;;;5011914;28;20619;-56
2023/03/21 13:01:24;;;;;;;7.90;4.63;;;;;;;;;;5010173;28;20469;-53
2023/03/21 13:03:54;;;;;;;5.80;5.07;;;;;;;;;;5011606;28;20511;-53
2023/03/21 13:06:22;;;;;;;6.83;5.07;;;;;;;;;;5023178;28;20182;-53
2023/03/21 13:08:52;;;;;;;4.80;4.03;;;;;;;;;;4992823;28;20673;-53
2023/03/21 13:11:23;;;;;;;5.93;4.57;;;;;;;;;;4994657;28;20195;-53
2023/03/21 13:14:05;;;;;;;4.30;3.90;;;;;;;;;;5010011;28;20236;-54
2023/03/21 13:16:40;;;;;;;7.23;4.10;;;;;;;;;;5010948;28;20179;-54
2023/03/21 13:19:06;;;;;;;7.37;5.17;;;;;;;;;;5007651;28;20217;-54
2023/03/21 13:21:51;;;;;;;7.37;3.83;;;;;;;;;;5010385;28;20197;-54
2023/03/21 13:24:17;;;;;;;4.67;3.83;;;;;;;;;;4992603;28;20839;-54
2023/03/21 13:27:05;;;;;;;7.90;4.47;;;;;;;;;;5015492;28;20545;-54
2023/03/21 13:29:33;;;;;;;7.23;3.90;;;;;;;;;;4990927;28;20686;-54
2023/03/21 13:32:07;;;;;;;6.33;4.10;;;;;;;;;;5009260;28;20190;-54
2023/03/21 13:34:33;;;;;;;7.53;4.70;;;;;;;;;;5009580;28;20191;-54
2023/03/21 13:37:00;;;;;;;6.80;4.07;;;;;;;;;;5010455;28;20197;-54
2023/03/21 13:39:28;;;;;;;6.27;4.37;;;;;;;;;;5011505;28;20174;-54
2023/03/21 13:41:54;;;;;;;5.90;4.60;;;;;;;;;;5016911;28;20271;-53
2023/03/21 13:44:31;;;;;;;4.17;3.77;;;;;;;;;;5024306;28;20324;-54
2023/03/21 13:47:16;;;;;;;3.93;3.50;;;;;;;;;;5021517;28;20210;-53
2023/03/21 13:49:42;;;;;;;6.30;3.90;;;;;;;;;;5009738;28;20167;-54
2023/03/21 13:52:08;;;;;;;10.93;4.73;;;;;;;;;;5006251;28;20190;-53
2023/03/21 13:54:34;;;;;;;8.40;4.67;;;;;;;;;;5009551;28;20540;-53
2023/03/21 13:57:04;;;;;;;5.13;4.27;;;;;;;;;;5014979;28;20182;-54
2023/03/21 13:59:39;;;;;;;4.90;3.63;;;;;;;;;;5010760;28;20265;-53
2023/03/21 14:02:11;;;;;;;7.60;3.90;;;;;;;;;;5010144;28;20242;-54
2023/03/21 14:04:38;;;;;;;6.77;3.60;;;;;;;;;;5008540;28;20209;-54
2023/03/21 14:07:06;;;;;;;5.20;3.80;;;;;;;;;;5010545;28;20210;-54
2023/03/21 14:09:32;;;;;;;6.73;4.00;;;;;;;;;;5010982;28;20175;-54
2023/03/21 14:12:00;;;;;;;11.13;5.43;;;;;;;;;;5012140;28;20201;-53
2023/03/21 14:14:30;;;;;;;6.80;4.47;;;;;;;;;;5015273;28;20209;-54
2023/03/21 14:16:56;;;;;;;5.10;4.03;;;;;;;;;;5009997;28;20181;-54
2023/03/21 14:19:29;;;;;;;6.73;4.30;;;;;;;;;;5008116;28;20221;-54
2023/03/21 14:21:56;;;;;;;6.97;4.20;;;;;;;;;;5010844;28;20188;-55
2023/03/21 14:24:22;;;;;;;6.80;4.00;;;;;;;;;;5002663;28;20171;-54
2023/03/21 14:26:50;;;;;;;5.57;3.73;;;;;;;;;;4991878;28;20323;-54
2023/03/21 14:29:22;;;;;;;4.10;3.70;;;;;;;;;;5020207;28;20181;-54
2023/03/21 14:31:48;;;;;;;4.73;4.10;;;;;;;;;;5029556;28;20603;-54
2023/03/21 14:34:15;;;;;;;4.73;3.70;;;;;;;;;;5008537;28;20234;-55
2023/03/21 14:36:42;;;;;;;4.27;3.67;;;;;;;;;;5009450;28;20541;-54
2023/03/21 14:39:16;;;;;;;5.10;3.97;;;;;;;;;;5010187;28;20166;-54
2023/03/21 14:41:43;;;;;;;4.40;4.00;;;;;;;;;;5010619;28;20634;-54
2023/03/21 14:44:27;;;;;;;6.47;3.93;;;;;;;;;;5005280;28;20681;-54
2023/03/21 14:47:13;;;;;;;5.27;4.30;;;;;;;;;;4991170;28;20253;-54
2023/03/21 14:49:39;;;;;;;5.43;3.70;;;;;;;;;;4992421;28;20582;-55